Time;durP1;ratioP1;P1;durP2;ratioP2;P2;SDS_P1;SDS_P2;PMS_P1;PMS_P2;Temp;Humidity;BMP_temperature;BMP_pressure;BME280_temperature;BME280_humidity;BME280_pressure;Samples;Min_cycle;Max_cycle;Signal;HPM_P1;HPM_P2
2023/06/24 00:00:00;;;;;;;1.40;0.90;;;19.50;99.90;;;;;;5072501;28;20581;-68
2023/06/24 00:02:27;;;;;;;3.10;0.90;;;19.70;99.90;;;;;;5073380;28;20274;-68
2023/06/24 00:05:00;;;;;;;4.23;0.90;;;19.90;99.90;;;;;;5073873;28;20183;-69
2023/06/24 00:07:27;;;;;;;2.33;0.80;;;19.90;99.90;;;;;;5073630;28;20179;-68
2023/06/24 00:09:54;;;;;;;3.90;0.63;;;19.80;99.70;;;;;;5073349;28;20260;-69
2023/06/24 00:12:22;;;;;;;1.97;0.60;;;19.60;96.80;;;;;;5073354;28;20519;-69
2023/06/24 00:14:50;;;;;;;1.57;0.60;;;19.70;99.00;;;;;;5073147;28;20227;-69
2023/06/24 00:17:18;;;;;;;1.37;0.40;;;20.30;94.40;;;;;;5073214;28;20217;-69
2023/06/24 00:19:45;;;;;;;0.50;0.50;;;20.40;87.20;;;;;;5072910;28;20644;-69
2023/06/24 00:22:12;;;;;;;1.87;0.40;;;19.90;91.10;;;;;;5073344;28;20182;-70
2023/06/24 00:24:42;;;;;;;0.60;0.50;;;19.70;93.00;;;;;;5073499;28;20192;-69
2023/06/24 00:27:10;;;;;;;0.97;0.47;;;20.00;91.70;;;;;;5073350;28;20706;-69
2023/06/24 00:29:37;;;;;;;0.63;0.50;;;20.60;93.00;;;;;;5073303;28;20234;-69
2023/06/24 00:32:05;;;;;;;0.60;0.40;;;20.50;90.20;;;;;;5073575;28;20168;-69
2023/06/24 00:34:33;;;;;;;1.30;0.37;;;20.00;81.30;;;;;;5073543;28;20180;-70
2023/06/24 00:37:02;;;;;;;0.53;0.50;;;19.80;81.60;;;;;;5073080;28;20232;-69
2023/06/24 00:39:30;;;;;;;2.97;0.50;;;19.60;81.80;;;;;;5073397;28;20176;-70
2023/06/24 00:42:49;;;;;;;0.90;0.53;;;19.70;82.00;;;;;;5072926;28;20511;-70
2023/06/24 00:45:17;;;;;;;1.60;0.70;;;20.20;81.60;;;;;;5073059;28;20178;-69
2023/06/24 00:47:45;;;;;;;0.83;0.60;;;20.80;77.40;;;;;;5073074;28;20258;-69
2023/06/24 00:50:12;;;;;;;2.93;0.73;;;21.30;72.90;;;;;;5073621;28;20183;-70
2023/06/24 00:52:42;;;;;;;1.80;0.50;;;21.20;65.40;;;;;;5072948;28;20175;-70
2023/06/24 00:55:14;;;;;;;1.83;0.50;;;20.80;62.90;;;;;;5073062;28;20187;-69
2023/06/24 00:57:45;;;;;;;0.40;0.40;;;20.80;64.70;;;;;;5073105;28;20170;-69
2023/06/24 01:00:15;;;;;;;2.10;0.40;;;21.10;64.80;;;;;;5073168;28;20179;-69
2023/06/24 01:02:43;;;;;;;0.33;0.33;;;21.00;61.60;;;;;;5072819;28;20707;-70
2023/06/24 01:05:14;;;;;;;2.03;0.40;;;21.20;64.50;;;;;;5072842;28;20206;-70
2023/06/24 01:07:44;;;;;;;0.40;0.40;;;21.20;57.90;;;;;;5072865;28;20179;-71
2023/06/24 01:10:12;;;;;;;2.80;0.50;;;21.10;58.30;;;;;;5075351;28;20211;-70
2023/06/24 01:12:43;;;;;;;1.20;0.50;;;20.70;56.10;;;;;;5077041;28;20580;-70
2023/06/24 01:15:12;;;;;;;0.90;0.60;;;20.70;59.70;;;;;;5075565;28;20238;-68
2023/06/24 01:17:39;;;;;;;3.67;0.50;;;21.10;58.60;;;;;;5076232;28;20195;-69
2023/06/24 01:20:23;;;;;;;2.10;0.53;;;21.30;58.30;;;;;;5076753;28;20186;-70
2023/06/24 01:23:15;;;;;;;0.97;0.90;;;21.90;55.40;;;;;;5076875;28;20206;-70
2023/06/24 01:26:00;;;;;;;1.33;0.43;;;21.50;56.60;;;;;;5079104;28;20187;-70
2023/06/24 01:29:00;;;;;;;0.70;0.50;;;21.00;54.80;;;;;;5056761;28;20264;-69
2023/06/24 01:31:51;;;;;;;0.83;0.50;;;21.10;57.40;;;;;;5068323;28;20181;-70
2023/06/24 01:34:41;;;;;;;2.77;0.40;;;20.90;55.80;;;;;;5075227;28;20270;-69
2023/06/24 01:37:20;;;;;;;3.17;0.50;;;20.90;57.20;;;;;;5076722;28;20710;-70
2023/06/24 01:40:10;;;;;;;1.53;0.53;;;21.50;54.40;;;;;;5076251;28;20183;-69
2023/06/24 01:42:45;;;;;;;0.43;0.43;;;21.30;54.30;;;;;;5076433;28;20534;-70
2023/06/24 01:45:38;;;;;;;1.80;0.50;;;21.80;53.70;;;;;;5075973;28;20183;-70
2023/06/24 01:48:34;;;;;;;1.27;0.40;;;21.70;54.00;;;;;;5068729;28;20219;-69
2023/06/24 01:51:21;;;;;;;1.73;0.60;;;21.80;47.40;;;;;;5074190;28;20190;-69
2023/06/24 01:53:54;;;;;;;2.83;0.50;;;21.90;49.40;;;;;;5075907;28;20543;-69
2023/06/24 01:56:24;;;;;;;1.23;0.50;;;21.40;48.80;;;;;;5076025;28;20183;-70
2023/06/24 01:58:54;;;;;;;1.83;0.43;;;21.50;48.30;;;;;;5076402;28;20226;-69
2023/06/24 02:01:23;;;;;;;1.30;0.40;;;21.90;49.60;;;;;;5076084;28;20200;-70
2023/06/24 02:03:52;;;;;;;1.57;0.40;;;22.20;47.60;;;;;;5075606;28;20551;-70
2023/06/24 02:06:21;;;;;;;1.20;0.30;;;22.50;45.30;;;;;;5075837;28;20199;-70
2023/06/24 02:08:51;;;;;;;1.87;0.60;;;22.40;44.90;;;;;;5075661;28;20239;-69
2023/06/24 02:11:20;;;;;;;1.03;0.63;;;22.40;45.90;;;;;;5075625;28;20260;-69
2023/06/24 02:13:48;;;;;;;0.60;0.40;;;23.00;43.10;;;;;;5075505;28;20642;-70
2023/06/24 02:16:18;;;;;;;2.47;0.43;;;23.00;42.60;;;;;;5075073;28;20292;-70
2023/06/24 02:18:47;;;;;;;0.60;0.40;;;22.90;42.70;;;;;;5075728;28;20667;-70
2023/06/24 02:21:25;;;;;;;1.80;0.40;;;23.40;41.10;;;;;;5074964;28;20244;-69
2023/06/24 02:23:53;;;;;;;0.37;0.30;;;23.30;38.10;;;;;;5075133;28;20188;-69
2023/06/24 02:26:22;;;;;;;5.33;0.50;;;23.40;37.60;;;;;;5075423;28;20179;-69
2023/06/24 02:28:50;;;;;;;0.97;0.40;;;23.00;33.50;;;;;;5073899;28;20214;-70
2023/06/24 02:31:17;;;;;;;1.00;0.67;;;22.50;34.70;;;;;;5075278;28;20176;-69
2023/06/24 02:37:08;;;;;;;1.23;0.50;;;22.40;35.40;;;;;;5074811;28;20664;-70
2023/06/24 02:39:38;;;;;;;1.30;0.40;;;22.70;32.70;;;;;;5075631;28;20175;-69
2023/06/24 02:42:06;;;;;;;2.37;0.50;;;22.40;32.00;;;;;;5075611;28;20178;-68
2023/06/24 02:44:34;;;;;;;0.70;0.30;;;22.40;35.70;;;;;;5075328;28;20198;-68
2023/06/24 02:47:02;;;;;;;1.37;0.50;;;22.30;33.30;;;;;;5075119;28;20168;-66
2023/06/24 02:49:31;;;;;;;1.40;0.53;;;22.80;35.10;;;;;;5073784;28;20219;-66
2023/06/24 02:51:59;;;;;;;0.47;0.40;;;22.90;32.60;;;;;;5074843;28;20210;-69
2023/06/24 02:54:27;;;;;;;1.33;0.40;;;23.20;33.00;;;;;;5075149;28;20191;-66
2023/06/24 02:56:57;;;;;;;1.97;0.43;;;23.10;30.40;;;;;;5074689;28;20172;-66
2023/06/24 02:59:26;;;;;;;1.37;0.40;;;23.10;32.60;;;;;;5075082;28;20573;-67
2023/06/24 03:01:55;;;;;;;0.37;0.30;;;23.40;30.70;;;;;;5074755;28;20178;-66
2023/06/24 03:04:22;;;;;;;0.47;0.30;;;23.50;29.40;;;;;;5074781;28;20176;-66
2023/06/24 03:06:52;;;;;;;0.23;0.23;;;23.20;29.30;;;;;;5074596;28;20180;-67
2023/06/24 03:09:20;;;;;;;1.10;0.30;;;23.20;28.90;;;;;;5074804;28;20207;-67
2023/06/24 03:11:48;;;;;;;0.70;0.30;;;23.20;28.90;;;;;;5074532;28;20176;-66
2023/06/24 03:14:15;;;;;;;0.30;0.30;;;23.30;29.20;;;;;;5074337;28;20184;-67
2023/06/24 03:16:43;;;;;;;0.63;0.50;;;23.50;27.00;;;;;;5074305;28;20621;-67
2023/06/24 03:19:11;;;;;;;0.63;0.50;;;23.20;27.90;;;;;;5074723;28;20179;-67
2023/06/24 03:21:38;;;;;;;0.47;0.40;;;23.30;28.30;;;;;;5074452;28;20234;-66
2023/06/24 03:24:06;;;;;;;0.87;0.47;;;23.50;28.30;;;;;;5074241;28;20176;-68
2023/06/24 03:26:41;;;;;;;0.70;0.40;;;23.70;27.50;;;;;;5074298;28;20206;-67
2023/06/24 03:29:09;;;;;;;2.17;0.33;;;23.90;27.40;;;;;;5074215;28;20257;-67
2023/06/24 03:31:37;;;;;;;1.23;0.30;;;24.50;26.20;;;;;;5073734;28;20210;-67
2023/06/24 03:34:05;;;;;;;0.70;0.47;;;24.50;25.50;;;;;;5072574;28;20192;-69
2023/06/24 03:36:34;;;;;;;0.90;0.40;;;23.90;25.00;;;;;;5073830;28;20221;-68
2023/06/24 03:39:03;;;;;;;2.53;0.50;;;23.40;25.90;;;;;;5073936;28;20665;-68
2023/06/24 03:41:30;;;;;;;0.50;0.30;;;23.50;25.30;;;;;;5073966;28;20176;-68
2023/06/24 03:43:58;;;;;;;1.97;0.40;;;23.10;25.40;;;;;;5073841;28;20180;-68
2023/06/24 03:46:26;;;;;;;0.73;0.47;;;23.30;25.60;;;;;;5073809;28;20191;-70
2023/06/24 03:48:54;;;;;;;0.93;0.40;;;23.50;25.80;;;;;;5073929;28;20210;-67
2023/06/24 03:51:21;;;;;;;0.43;0.33;;;23.20;24.90;;;;;;5073794;28;20187;-67
2023/06/24 03:57:13;;;;;;;1.17;0.40;;;23.00;24.00;;;;;;5072903;28;20250;-67
2023/06/24 03:59:40;;;;;;;1.90;0.40;;;22.90;23.70;;;;;;5072341;28;20233;-68
2023/06/24 04:02:08;;;;;;;0.90;0.60;;;22.70;23.80;;;;;;5073395;28;20595;-67
2023/06/24 04:04:39;;;;;;;0.67;0.40;;;22.70;24.70;;;;;;5073534;28;20176;-68
2023/06/24 04:07:06;;;;;;;1.77;0.40;;;23.10;25.40;;;;;;5073425;28;20179;-68
2023/06/24 04:09:37;;;;;;;1.33;0.50;;;23.50;24.80;;;;;;5073077;28;20223;-67
2023/06/24 04:12:05;;;;;;;0.90;0.60;;;23.70;24.50;;;;;;5073413;28;20175;-69
2023/06/24 04:14:33;;;;;;;2.73;0.40;;;23.60;23.50;;;;;;5073424;28;20231;-68
2023/06/24 04:17:02;;;;;;;0.60;0.40;;;23.50;22.60;;;;;;5073386;28;20229;-69
2023/06/24 04:19:30;;;;;;;1.23;0.30;;;23.90;22.10;;;;;;5073486;28;20179;-69
2023/06/24 04:21:58;;;;;;;0.77;0.30;;;24.20;22.30;;;;;;5073600;28;20180;-69
2023/06/24 04:24:25;;;;;;;1.17;0.40;;;23.80;20.80;;;;;;5073415;28;20176;-69
2023/06/24 04:26:58;;;;;;;0.30;0.23;;;23.70;20.40;;;;;;5073138;28;20211;-69
2023/06/24 04:29:25;;;;;;;0.20;0.20;;;23.50;19.40;;;;;;5073140;28;20588;-68
2023/06/24 04:31:53;;;;;;;0.60;0.30;;;23.40;17.30;;;;;;5073220;28;20176;-69
2023/06/24 04:34:21;;;;;;;0.67;0.37;;;23.10;18.40;;;;;;5073246;28;20222;-70
2023/06/24 04:36:49;;;;;;;2.10;0.57;;;23.20;18.80;;;;;;5073010;28;20210;-68
2023/06/24 04:39:16;;;;;;;0.60;0.40;;;23.60;18.60;;;;;;5073033;28;20183;-68
2023/06/24 04:41:44;;;;;;;0.70;0.40;;;23.60;17.00;;;;;;5073640;28;20176;-68
2023/06/24 04:44:12;;;;;;;1.90;0.40;;;23.50;16.20;;;;;;5072879;28;20176;-68
2023/06/24 04:46:40;;;;;;;0.40;0.40;;;23.50;16.60;;;;;;5073074;28;20171;-69
2023/06/24 04:49:08;;;;;;;0.80;0.40;;;23.60;16.30;;;;;;5072974;28;20238;-68
2023/06/24 04:51:36;;;;;;;1.20;0.40;;;23.20;16.00;;;;;;5072967;28;20186;-69
2023/06/24 04:54:05;;;;;;;0.47;0.30;;;23.10;14.40;;;;;;5072803;28;20266;-68
2023/06/24 04:56:34;;;;;;;2.43;0.40;;;22.80;15.10;;;;;;5072902;28;20211;-69
2023/06/24 04:59:02;;;;;;;0.30;0.30;;;22.80;14.70;;;;;;5071698;28;20224;-68
2023/06/24 05:01:30;;;;;;;1.33;0.40;;;22.60;14.90;;;;;;5073038;28;20224;-69
2023/06/24 05:03:57;;;;;;;1.07;0.43;;;22.50;14.90;;;;;;5071379;28;20180;-67
2023/06/24 05:06:25;;;;;;;0.87;0.30;;;22.50;15.90;;;;;;5072757;28;20180;-67
2023/06/24 05:08:53;;;;;;;0.40;0.40;;;22.40;15.40;;;;;;5072712;28;20219;-69
2023/06/24 05:11:21;;;;;;;0.47;0.40;;;22.60;16.20;;;;;;5072892;28;20179;-68
2023/06/24 05:13:48;;;;;;;1.67;0.50;;;22.70;14.10;;;;;;5072866;28;20267;-68
2023/06/24 05:16:17;;;;;;;1.07;0.50;;;22.60;13.10;;;;;;5072367;28;20565;-67
2023/06/24 05:18:46;;;;;;;1.03;0.50;;;22.50;13.90;;;;;;5072681;28;20184;-67
2023/06/24 05:21:13;;;;;;;0.57;0.30;;;22.40;13.10;;;;;;5072835;28;20259;-69
2023/06/24 05:23:41;;;;;;;0.53;0.40;;;22.40;14.10;;;;;;5072829;28;20218;-67
2023/06/24 05:26:10;;;;;;;0.60;0.47;;;22.40;13.10;;;;;;5072453;28;20178;-68
2023/06/24 05:28:38;;;;;;;0.30;0.30;;;22.10;13.40;;;;;;5072448;28;20689;-68
2023/06/24 05:31:06;;;;;;;0.37;0.37;;;21.70;14.10;;;;;;5072580;28;20175;-67
2023/06/24 05:33:34;;;;;;;2.00;0.40;;;21.50;15.50;;;;;;5072587;28;20203;-69
2023/06/24 05:36:02;;;;;;;0.93;0.30;;;21.30;16.40;;;;;;5072395;28;20657;-67
2023/06/24 05:38:29;;;;;;;0.40;0.40;;;21.00;15.50;;;;;;5072618;28;20225;-67
2023/06/24 05:40:57;;;;;;;0.87;0.67;;;20.70;15.30;;;;;;5072600;28;20521;-67
2023/06/24 05:43:27;;;;;;;0.50;0.47;;;20.40;16.40;;;;;;5072628;28;20180;-68
2023/06/24 05:45:55;;;;;;;0.50;0.50;;;20.10;17.00;;;;;;5072606;28;20171;-67
2023/06/24 05:48:23;;;;;;;2.20;0.40;;;19.90;17.50;;;;;;5072438;28;20192;-67
2023/06/24 05:50:50;;;;;;;0.40;0.40;;;19.80;18.40;;;;;;5072402;28;20184;-67
2023/06/24 05:53:18;;;;;;;0.30;0.30;;;19.60;18.20;;;;;;5072625;28;20266;-67
2023/06/24 05:55:46;;;;;;;0.73;0.53;;;19.50;19.20;;;;;;5073415;28;20527;-68
2023/06/24 05:58:14;;;;;;;0.70;0.60;;;19.40;18.80;;;;;;5076409;28;20206;-68
2023/06/24 06:00:55;;;;;;;0.57;0.40;;;19.30;19.00;;;;;;5074756;28;20228;-68
2023/06/24 06:03:23;;;;;;;1.07;0.70;;;19.20;19.60;;;;;;5076168;28;20637;-67
2023/06/24 06:05:51;;;;;;;1.23;0.50;;;19.10;20.20;;;;;;5076078;28;20178;-67
2023/06/24 06:08:18;;;;;;;0.50;0.40;;;19.10;20.10;;;;;;5076145;28;20560;-67
2023/06/24 06:10:46;;;;;;;0.87;0.60;;;19.00;21.00;;;;;;5076097;28;20255;-68
2023/06/24 06:13:14;;;;;;;0.50;0.50;;;18.80;21.80;;;;;;5075975;28;20600;-67
2023/06/24 06:15:42;;;;;;;0.43;0.40;;;18.60;22.20;;;;;;5075558;28;20233;-67
2023/06/24 06:18:10;;;;;;;1.97;0.63;;;18.50;22.50;;;;;;5075905;28;20207;-67
2023/06/24 06:20:37;;;;;;;0.70;0.70;;;18.50;23.20;;;;;;5075957;28;20580;-68
2023/06/24 06:23:05;;;;;;;0.60;0.50;;;18.50;22.80;;;;;;5076033;28;20194;-67
2023/06/24 06:25:33;;;;;;;0.80;0.63;;;18.40;23.40;;;;;;5075641;28;20669;-68
2023/06/24 06:28:00;;;;;;;1.10;0.63;;;18.30;24.60;;;;;;5075554;28;20175;-68
2023/06/24 06:30:28;;;;;;;1.13;0.77;;;18.20;24.50;;;;;;5075557;28;20180;-67
2023/06/24 06:32:56;;;;;;;0.70;0.63;;;18.20;26.20;;;;;;5075626;28;20183;-67
2023/06/24 06:35:23;;;;;;;1.13;0.60;;;18.10;27.80;;;;;;5075668;28;20180;-68
2023/06/24 06:37:54;;;;;;;1.13;0.70;;;17.90;29.00;;;;;;5075240;28;20271;-67
2023/06/24 06:40:22;;;;;;;0.87;0.70;;;17.70;33.90;;;;;;5076038;28;20191;-68
2023/06/24 06:42:50;;;;;;;1.00;0.60;;;17.50;35.10;;;;;;5075290;28;20180;-68
2023/06/24 06:45:18;;;;;;;0.97;0.83;;;17.30;37.90;;;;;;5074167;28;20180;-67
2023/06/24 06:47:45;;;;;;;1.37;0.90;;;17.00;43.10;;;;;;5075372;28;20206;-68
2023/06/24 06:50:13;;;;;;;1.30;1.00;;;16.90;44.70;;;;;;5075023;28;20222;-67
2023/06/24 06:52:40;;;;;;;1.63;1.37;;;16.70;48.00;;;;;;5073891;28;20188;-68
2023/06/24 06:55:09;;;;;;;3.13;1.23;;;16.50;51.80;;;;;;5075225;28;20180;-67
2023/06/24 06:57:37;;;;;;;3.23;1.10;;;16.30;57.70;;;;;;5073709;28;20171;-68
2023/06/24 07:00:05;;;;;;;4.43;1.50;;;16.10;63.70;;;;;;5075220;28;20180;-68
2023/06/24 07:02:33;;;;;;;1.93;1.40;;;16.00;68.10;;;;;;5073676;28;20266;-68
2023/06/24 07:05:02;;;;;;;5.90;1.10;;;15.90;68.80;;;;;;5073882;28;20554;-68
2023/06/24 07:07:30;;;;;;;2.67;1.40;;;16.00;72.70;;;;;;5073545;28;20180;-68
2023/06/24 07:09:57;;;;;;;1.80;1.30;;;15.90;74.00;;;;;;5074891;28;20208;-67
2023/06/24 07:12:25;;;;;;;2.87;1.70;;;15.70;79.90;;;;;;5074688;28;20179;-67
2023/06/24 07:14:53;;;;;;;4.27;1.63;;;15.60;88.70;;;;;;5074536;28;20244;-69
2023/06/24 07:17:20;;;;;;;2.97;1.30;;;15.50;89.10;;;;;;5074529;28;20282;-68
2023/06/24 07:19:48;;;;;;;3.07;1.70;;;15.50;91.40;;;;;;5075213;28;20197;-68
2023/06/24 07:22:16;;;;;;;3.50;1.70;;;15.40;91.40;;;;;;5074653;28;20171;-68
2023/06/24 07:24:44;;;;;;;4.10;2.03;;;15.20;93.40;;;;;;5074720;28;20179;-68
2023/06/24 07:27:11;;;;;;;6.57;3.10;;;15.10;95.70;;;;;;5074601;28;20176;-67
2023/06/24 07:29:39;;;;;;;4.53;2.70;;;15.10;96.40;;;;;;5074567;28;20570;-67
2023/06/24 07:32:08;;;;;;;4.63;3.13;;;15.00;96.60;;;;;;5074621;28;20179;-68
2023/06/24 07:34:35;;;;;;;6.23;3.00;;;14.90;98.60;;;;;;5074467;28;20178;-67
2023/06/24 07:37:04;;;;;;;7.53;3.00;;;14.60;99.90;;;;;;5074350;28;20569;-68
2023/06/24 07:39:32;;;;;;;6.70;2.87;;;14.40;99.90;;;;;;5072749;28;20541;-67
2023/06/24 07:41:59;;;;;;;3.50;2.33;;;14.30;99.90;;;;;;5074507;28;20175;-68
2023/06/24 07:44:27;;;;;;;6.77;2.37;;;14.40;99.90;;;;;;5074576;28;20703;-69
2023/06/24 07:46:55;;;;;;;3.83;2.53;;;14.30;99.90;;;;;;5074367;28;20178;-69
2023/06/24 07:49:22;;;;;;;4.60;2.63;;;14.20;99.90;;;;;;5074145;28;20226;-69
2023/06/24 07:51:50;;;;;;;3.77;2.43;;;14.10;99.90;;;;;;5074190;28;20234;-69
2023/06/24 07:54:18;;;;;;;3.47;2.13;;;14.20;99.90;;;;;;5074430;28;20224;-68
2023/06/24 07:56:45;;;;;;;3.23;2.07;;;14.20;99.90;;;;;;5073820;28;20726;-69
2023/06/24 07:59:13;;;;;;;4.77;2.63;;;14.00;99.90;;;;;;5074146;28;20171;-69
2023/06/24 08:01:41;;;;;;;4.83;2.47;;;14.00;99.90;;;;;;5073969;28;20527;-70
2023/06/24 08:04:08;;;;;;;5.80;3.07;;;14.00;99.90;;;;;;5073925;28;20176;-68
2023/06/24 08:06:36;;;;;;;4.20;2.43;;;13.80;99.90;;;;;;5073860;28;20228;-68
2023/06/24 08:09:04;;;;;;;6.03;3.10;;;13.70;99.90;;;;;;5073911;28;20218;-68
2023/06/24 08:11:31;;;;;;;9.10;3.43;;;13.50;99.90;;;;;;5073863;28;20184;-68
2023/06/24 08:13:59;;;;;;;9.40;4.10;;;13.40;99.90;;;;;;5072458;28;20667;-68
2023/06/24 08:16:27;;;;;;;8.27;3.90;;;13.30;99.90;;;;;;5073593;28;20219;-69
2023/06/24 08:18:54;;;;;;;9.40;3.60;;;13.20;99.90;;;;;;5073477;28;20178;-70
2023/06/24 08:21:22;;;;;;;9.60;4.00;;;13.10;99.90;;;;;;5073868;28;20166;-68
2023/06/24 08:23:51;;;;;;;5.37;3.40;;;13.10;99.90;;;;;;5073570;28;20186;-68
2023/06/24 08:26:21;;;;;;;8.43;3.93;;;13.00;99.90;;;;;;5073547;28;20175;-68
2023/06/24 08:28:49;;;;;;;8.73;4.10;;;12.90;99.90;;;;;;5073358;28;20225;-69
2023/06/24 08:31:17;;;;;;;8.87;4.30;;;12.90;99.90;;;;;;5073371;28;20186;-69
2023/06/24 08:33:47;;;;;;;8.73;5.10;;;12.70;99.90;;;;;;5073467;28;20189;-68
2023/06/24 08:36:15;;;;;;;8.57;4.50;;;12.70;99.90;;;;;;5073195;28;20179;-68
2023/06/24 08:38:42;;;;;;;5.83;3.50;;;12.70;99.90;;;;;;5073189;28;20182;-68
2023/06/24 08:41:10;;;;;;;6.97;3.20;;;12.70;99.90;;;;;;5073296;28;20187;-69
2023/06/24 08:43:39;;;;;;;5.33;3.20;;;12.60;99.90;;;;;;5073441;28;20690;-68
2023/06/24 08:46:08;;;;;;;5.80;3.03;;;12.60;99.90;;;;;;5073280;28;20178;-68
2023/06/24 08:48:40;;;;;;;5.73;3.13;;;12.40;99.90;;;;;;5073296;28;20197;-69
2023/06/24 08:51:09;;;;;;;9.30;4.33;;;12.30;99.90;;;;;;5073070;28;20179;-69
2023/06/24 08:53:43;;;;;;;7.90;3.60;;;12.20;99.90;;;;;;5073210;28;20218;-69
2023/06/24 08:56:11;;;;;;;9.17;4.57;;;12.10;99.90;;;;;;5073075;28;20214;-68
2023/06/24 08:58:40;;;;;;;10.90;5.20;;;11.90;99.90;;;;;;5073186;28;20186;-68
2023/06/24 09:01:08;;;;;;;16.90;8.63;;;11.80;99.90;;;;;;5071676;28;20194;-68
2023/06/24 09:03:36;;;;;;;15.77;9.63;;;11.80;99.90;;;;;;5073213;28;20178;-68
2023/06/24 09:06:04;;;;;;;21.60;13.10;;;11.70;99.90;;;;;;5073043;28;20178;-68
2023/06/24 09:08:31;;;;;;;20.77;12.50;;;11.70;99.90;;;;;;5073006;28;20206;-68
2023/06/24 09:10:59;;;;;;;22.00;12.03;;;11.60;99.90;;;;;;5073085;28;20181;-68
2023/06/24 09:13:36;;;;;;;18.73;12.13;;;11.50;99.90;;;;;;5073052;28;20176;-68
2023/06/24 09:16:15;;;;;;;22.33;11.10;;;11.40;99.90;;;;;;5072633;28;20715;-68
2023/06/24 09:18:48;;;;;;;18.93;11.50;;;11.30;99.90;;;;;;5072859;28;20184;-68
2023/06/24 09:21:30;;;;;;;16.50;9.83;;;11.10;99.90;;;;;;5072879;28;20265;-68
2023/06/24 09:23:59;;;;;;;13.50;8.43;;;11.00;99.90;;;;;;5073228;28;20189;-68
2023/06/24 09:26:29;;;;;;;14.90;7.77;;;11.10;99.90;;;;;;5073484;28;20198;-70
2023/06/24 09:28:58;;;;;;;11.63;5.67;;;10.90;99.90;;;;;;5072775;28;20237;-68
2023/06/24 09:31:28;;;;;;;8.83;5.40;;;10.90;99.90;;;;;;5075246;28;20176;-68
2023/06/24 09:33:59;;;;;;;8.93;5.37;;;10.90;99.90;;;;;;5076563;28;20210;-68
2023/06/24 09:36:27;;;;;;;8.53;5.80;;;10.90;99.90;;;;;;5076409;28;20173;-68
2023/06/24 09:38:57;;;;;;;5.57;3.90;;;10.90;99.90;;;;;;5075419;28;20641;-68
2023/06/24 09:41:27;;;;;;;7.47;4.60;;;10.90;99.90;;;;;;5075291;28;20272;-68
2023/06/24 09:43:59;;;;;;;8.07;3.80;;;10.80;99.90;;;;;;5077050;28;20589;-68
2023/06/24 09:46:27;;;;;;;6.43;4.00;;;10.70;99.90;;;;;;5075321;28;20172;-67
2023/06/24 09:48:55;;;;;;;6.80;4.63;;;10.60;99.90;;;;;;5076476;28;20212;-68
2023/06/24 09:51:25;;;;;;;7.63;4.63;;;10.60;99.90;;;;;;5076447;28;20165;-67
2023/06/24 09:53:56;;;;;;;6.57;3.90;;;10.50;99.90;;;;;;5076425;28;20177;-67
2023/06/24 09:56:23;;;;;;;7.37;4.17;;;10.30;99.90;;;;;;5076203;28;20169;-70
2023/06/24 09:58:51;;;;;;;6.37;3.77;;;10.30;99.90;;;;;;5076383;28;20176;-67
2023/06/24 10:01:20;;;;;;;8.00;4.50;;;10.30;99.90;;;;;;5076358;28;20172;-68
2023/06/24 10:03:48;;;;;;;6.03;4.00;;;10.20;99.90;;;;;;5076169;28;20246;-67
2023/06/24 10:06:15;;;;;;;7.00;4.57;;;10.10;99.90;;;;;;5076064;28;20182;-67
2023/06/24 10:08:43;;;;;;;5.27;3.63;;;10.10;99.90;;;;;;5076045;28;20208;-67
2023/06/24 10:11:11;;;;;;;10.83;4.60;;;10.00;99.90;;;;;;5076692;28;20340;-68
2023/06/24 10:13:39;;;;;;;7.40;4.07;;;9.90;99.90;;;;;;5076119;28;20190;-66
2023/06/24 10:16:07;;;;;;;7.33;3.93;;;9.80;99.90;;;;;;5075862;28;20228;-66
2023/06/24 10:18:38;;;;;;;11.73;4.63;;;9.80;99.90;;;;;;5076166;28;20231;-68
2023/06/24 10:21:08;;;;;;;7.57;5.27;;;9.70;99.90;;;;;;5076056;28;20641;-68
2023/06/24 10:23:56;;;;;;;7.43;4.83;;;9.70;99.90;;;;;;5075843;28;20637;-68
2023/06/24 10:26:25;;;;;;;13.00;6.30;;;9.60;99.90;;;;;;5075741;28;20180;-69
2023/06/24 10:29:09;;;;;;;9.70;6.43;;;9.60;99.90;;;;;;5075673;28;20206;-68
2023/06/24 10:31:43;;;;;;;8.90;6.27;;;9.50;99.90;;;;;;5075872;28;20182;-68
2023/06/24 10:34:39;;;;;;;10.63;5.90;;;9.50;99.90;;;;;;5074721;28;20180;-68
2023/06/24 10:37:14;;;;;;;10.63;5.57;;;9.50;99.90;;;;;;5075701;28;20181;-68
2023/06/24 10:39:56;;;;;;;11.67;6.80;;;9.50;99.90;;;;;;5074662;28;20178;-68
2023/06/24 10:42:28;;;;;;;11.20;6.17;;;9.30;99.90;;;;;;5075543;28;20318;-68
2023/06/24 10:45:14;;;;;;;9.60;5.90;;;9.20;99.90;;;;;;5075754;28;20172;-67
2023/06/24 10:47:49;;;;;;;11.87;6.20;;;9.20;99.90;;;;;;5075569;28;20179;-68
2023/06/24 10:50:23;;;;;;;12.27;6.50;;;9.10;99.90;;;;;;5075849;28;20595;-69
2023/06/24 10:52:56;;;;;;;13.20;6.63;;;9.20;99.90;;;;;;5075601;28;20265;-68
2023/06/24 10:55:28;;;;;;;11.77;7.70;;;9.20;99.90;;;;;;5074096;28;20228;-68
2023/06/24 10:58:07;;;;;;;9.47;6.40;;;9.20;99.90;;;;;;5075056;28;20174;-69
2023/06/24 11:00:35;;;;;;;13.37;6.63;;;9.20;99.90;;;;;;5075308;28;20175;-68
2023/06/24 11:03:13;;;;;;;10.83;6.53;;;9.20;99.90;;;;;;5075139;28;20172;-67
2023/06/24 11:05:43;;;;;;;11.17;6.47;;;9.10;99.90;;;;;;5075026;28;20187;-67
2023/06/24 11:08:11;;;;;;;11.80;6.10;;;9.10;99.90;;;;;;5075181;28;20168;-68
2023/06/24 11:10:46;;;;;;;10.50;6.47;;;9.10;99.90;;;;;;5074906;28;20184;-68
2023/06/24 11:13:15;;;;;;;9.70;6.40;;;9.10;99.90;;;;;;5074858;28;20180;-67
2023/06/24 11:15:42;;;;;;;10.53;7.53;;;9.10;99.90;;;;;;5074734;28;20243;-67
2023/06/24 11:18:13;;;;;;;13.03;6.60;;;9.10;99.90;;;;;;5074766;28;20207;-68
2023/06/24 11:20:42;;;;;;;8.57;6.73;;;9.00;99.90;;;;;;5074787;28;20179;-68
2023/06/24 11:23:10;;;;;;;11.33;6.70;;;9.00;99.90;;;;;;5074601;28;20191;-67
2023/06/24 11:25:42;;;;;;;10.83;6.47;;;8.90;99.90;;;;;;5074621;28;20176;-68
2023/06/24 11:28:18;;;;;;;9.47;5.97;;;8.90;99.90;;;;;;5074625;28;20258;-68
2023/06/24 11:30:46;;;;;;;10.67;6.33;;;8.90;99.90;;;;;;5074669;28;20636;-68
2023/06/24 11:33:26;;;;;;;10.00;6.50;;;8.80;99.90;;;;;;5074551;28;20537;-67
2023/06/24 11:35:54;;;;;;;9.60;6.27;;;8.70;99.90;;;;;;5074465;28;20179;-68
2023/06/24 11:38:22;;;;;;;10.63;6.07;;;8.90;99.90;;;;;;5074479;28;20662;-67
2023/06/24 11:40:50;;;;;;;11.03;6.70;;;8.80;99.90;;;;;;5074008;28;20180;-68
2023/06/24 11:43:17;;;;;;;10.77;6.10;;;8.70;99.90;;;;;;5073869;28;20532;-68
2023/06/24 11:45:49;;;;;;;10.43;6.37;;;8.70;99.90;;;;;;5074246;28;20175;-69
2023/06/24 11:48:17;;;;;;;12.03;6.10;;;8.70;99.90;;;;;;5074359;28;20176;-68
2023/06/24 11:50:45;;;;;;;12.93;6.60;;;8.70;99.90;;;;;;5074744;28;20181;-68
2023/06/24 11:53:12;;;;;;;9.00;5.83;;;8.60;99.90;;;;;;5072995;28;20180;-67
2023/06/24 11:55:40;;;;;;;8.07;5.43;;;8.60;99.90;;;;;;5073954;28;20180;-67
2023/06/24 11:58:09;;;;;;;9.27;5.73;;;8.70;99.90;;;;;;5074052;28;20199;-67
2023/06/24 12:00:44;;;;;;;8.63;6.10;;;8.70;99.90;;;;;;5074394;28;20179;-67
2023/06/24 12:03:12;;;;;;;7.97;5.30;;;8.50;99.90;;;;;;5073967;28;20233;-67
2023/06/24 12:05:44;;;;;;;10.27;5.90;;;8.50;99.90;;;;;;5073797;28;20185;-67
2023/06/24 12:08:16;;;;;;;8.30;5.63;;;8.50;99.90;;;;;;5072581;28;20249;-68
2023/06/24 12:10:45;;;;;;;9.50;5.67;;;8.50;99.90;;;;;;5073969;28;20184;-68
2023/06/24 12:13:13;;;;;;;8.23;5.57;;;8.50;99.90;;;;;;5073622;28;20175;-68
2023/06/24 12:15:41;;;;;;;9.17;5.73;;;8.40;99.90;;;;;;5073431;28;20228;-68
2023/06/24 12:18:09;;;;;;;9.10;5.77;;;8.30;99.90;;;;;;5073685;28;20230;-68
2023/06/24 12:20:37;;;;;;;8.87;5.73;;;8.30;99.90;;;;;;5073773;28;20172;-67
2023/06/24 12:23:05;;;;;;;8.43;5.60;;;8.30;99.90;;;;;;5073817;28;20236;-68
2023/06/24 12:25:34;;;;;;;8.70;5.37;;;8.30;99.90;;;;;;5073629;28;20169;-68
2023/06/24 12:28:01;;;;;;;9.07;5.70;;;8.40;99.90;;;;;;5073520;28;20200;-68
2023/06/24 12:30:29;;;;;;;9.40;5.57;;;8.50;99.90;;;;;;5073461;28;20685;-69
2023/06/24 12:32:57;;;;;;;9.93;4.03;;;8.50;99.90;;;;;;5073464;28;20168;-68
2023/06/24 12:35:25;;;;;;;5.40;4.47;;;8.80;99.90;;;;;;5073439;28;20615;-69
2023/06/24 12:37:53;;;;;;;4.63;3.60;;;8.90;99.90;;;;;;5073151;28;20174;-68
2023/06/24 12:40:21;;;;;;;5.50;3.53;;;9.10;99.90;;;;;;5073516;28;20177;-69
2023/06/24 12:42:49;;;;;;;8.00;3.77;;;9.40;99.90;;;;;;5073279;28;20690;-68
2023/06/24 12:45:16;;;;;;;5.17;3.40;;;9.70;99.90;;;;;;5073318;28;20579;-68
2023/06/24 12:47:44;;;;;;;5.83;3.17;;;9.70;99.90;;;;;;5073393;28;20169;-69
2023/06/24 12:50:12;;;;;;;4.40;3.10;;;9.70;99.90;;;;;;5073623;28;20270;-69
2023/06/24 12:52:39;;;;;;;7.40;3.13;;;9.70;99.90;;;;;;5073498;28;20256;-69
2023/06/24 12:55:08;;;;;;;5.03;3.10;;;9.50;99.90;;;;;;5071822;28;20179;-68
2023/06/24 12:57:36;;;;;;;3.90;2.90;;;9.40;99.90;;;;;;5072985;28;20178;-66
2023/06/24 13:00:08;;;;;;;4.00;2.87;;;9.40;99.90;;;;;;5073261;28;20655;-69
2023/06/24 13:02:38;;;;;;;3.97;2.43;;;9.30;99.90;;;;;;5073193;28;20676;-69
2023/06/24 13:05:06;;;;;;;3.87;2.60;;;9.20;99.90;;;;;;5073638;28;20192;-68
2023/06/24 13:07:34;;;;;;;3.10;2.47;;;9.10;99.90;;;;;;5073017;28;20631;-68